sensor_id;sensor_type;location;lat;lon;timestamp;P1;durP1;ratioP1;P2;durP2;ratioP2
83306;SDS011;73223;48.584;13.460;2023-11-25T00:01:20;5.00;;;1.60;;
83306;SDS011;73223;48.584;13.460;2023-11-25T00:03:47;6.15;;;1.70;;
83306;SDS011;73223;48.584;13.460;2023-11-25T00:06:12;5.35;;;1.55;;
83306;SDS011;73223;48.584;13.460;2023-11-25T00:08:37;5.57;;;1.53;;
83306;SDS011;73223;48.584;13.460;2023-11-25T00:11:02;5.53;;;1.43;;
83306;SDS011;73223;48.584;13.460;2023-11-25T00:13:28;7.00;;;1.70;;
83306;SDS011;73223;48.584;13.460;2023-11-25T00:15:54;6.23;;;1.70;;
83306;SDS011;73223;48.584;13.460;2023-11-25T00:18:19;4.15;;;1.48;;
83306;SDS011;73223;48.584;13.460;2023-11-25T00:20:45;4.40;;;1.27;;
83306;SDS011;73223;48.584;13.460;2023-11-25T00:23:11;3.92;;;1.42;;
83306;SDS011;73223;48.584;13.460;2023-11-25T00:25:37;4.03;;;1.35;;
83306;SDS011;73223;48.584;13.460;2023-11-25T00:28:02;5.80;;;1.50;;
83306;SDS011;73223;48.584;13.460;2023-11-25T00:30:29;6.10;;;1.27;;
83306;SDS011;73223;48.584;13.460;2023-11-25T00:32:55;3.88;;;1.17;;
83306;SDS011;73223;48.584;13.460;2023-11-25T00:35:20;5.88;;;1.38;;
83306;SDS011;73223;48.584;13.460;2023-11-25T00:37:45;8.27;;;2.03;;
83306;SDS011;73223;48.584;13.460;2023-11-25T00:40:11;7.63;;;1.90;;
83306;SDS011;73223;48.584;13.460;2023-11-25T00:42:37;4.50;;;1.30;;
83306;SDS011;73223;48.584;13.460;2023-11-25T00:45:06;3.88;;;1.08;;
83306;SDS011;73223;48.584;13.460;2023-11-25T00:47:32;7.82;;;1.63;;
83306;SDS011;73223;48.584;13.460;2023-11-25T00:49:58;4.53;;;1.55;;
83306;SDS011;73223;48.584;13.460;2023-11-25T00:52:25;6.30;;;1.30;;
83306;SDS011;73223;48.584;13.460;2023-11-25T00:54:50;3.70;;;1.20;;
83306;SDS011;73223;48.584;13.460;2023-11-25T00:57:15;3.80;;;1.27;;
83306;SDS011;73223;48.584;13.460;2023-11-25T00:59:40;3.67;;;1.13;;
83306;SDS011;73223;48.584;13.460;2023-11-25T01:02:06;6.05;;;1.48;;
83306;SDS011;73223;48.584;13.460;2023-11-25T01:04:31;4.57;;;1.53;;
83306;SDS011;73223;48.584;13.460;2023-11-25T01:06:57;2.08;;;0.93;;
83306;SDS011;73223;48.584;13.460;2023-11-25T01:09:22;4.28;;;1.33;;
83306;SDS011;73223;48.584;13.460;2023-11-25T01:11:50;7.20;;;1.27;;
83306;SDS011;73223;48.584;13.460;2023-11-25T01:14:16;4.80;;;1.15;;
83306;SDS011;73223;48.584;13.460;2023-11-25T01:16:41;3.38;;;1.08;;
83306;SDS011;73223;48.584;13.460;2023-11-25T01:19:06;5.55;;;1.50;;
83306;SDS011;73223;48.584;13.460;2023-11-25T01:21:32;4.45;;;1.15;;
83306;SDS011;73223;48.584;13.460;2023-11-25T01:23:58;4.00;;;1.30;;
83306;SDS011;73223;48.584;13.460;2023-11-25T01:26:23;4.53;;;1.30;;
83306;SDS011;73223;48.584;13.460;2023-11-25T01:28:48;3.30;;;1.15;;
83306;SDS011;73223;48.584;13.460;2023-11-25T01:31:14;4.20;;;1.45;;
83306;SDS011;73223;48.584;13.460;2023-11-25T01:33:39;4.97;;;1.30;;
83306;SDS011;73223;48.584;13.460;2023-11-25T01:36:05;4.53;;;1.17;;
83306;SDS011;73223;48.584;13.460;2023-11-25T01:38:34;4.20;;;1.30;;
83306;SDS011;73223;48.584;13.460;2023-11-25T01:41:03;5.30;;;1.20;;
83306;SDS011;73223;48.584;13.460;2023-11-25T01:43:32;7.43;;;1.40;;
83306;SDS011;73223;48.584;13.460;2023-11-25T01:45:58;3.03;;;1.17;;
83306;SDS011;73223;48.584;13.460;2023-11-25T01:48:26;3.05;;;0.95;;
83306;SDS011;73223;48.584;13.460;2023-11-25T01:50:53;3.00;;;1.02;;
83306;SDS011;73223;48.584;13.460;2023-11-25T01:53:19;4.57;;;1.20;;
83306;SDS011;73223;48.584;13.460;2023-11-25T01:55:45;2.83;;;1.08;;
83306;SDS011;73223;48.584;13.460;2023-11-25T01:58:12;3.75;;;1.02;;
83306;SDS011;73223;48.584;13.460;2023-11-25T02:00:40;3.50;;;1.08;;
83306;SDS011;73223;48.584;13.460;2023-11-25T02:03:08;4.82;;;0.77;;
83306;SDS011;73223;48.584;13.460;2023-11-25T02:05:34;2.72;;;0.90;;
83306;SDS011;73223;48.584;13.460;2023-11-25T02:07:59;1.40;;;0.70;;
83306;SDS011;73223;48.584;13.460;2023-11-25T02:10:25;2.97;;;1.00;;
83306;SDS011;73223;48.584;13.460;2023-11-25T02:12:51;2.20;;;1.27;;
83306;SDS011;73223;48.584;13.460;2023-11-25T02:15:16;4.60;;;1.37;;
83306;SDS011;73223;48.584;13.460;2023-11-25T02:17:41;3.13;;;0.90;;
83306;SDS011;73223;48.584;13.460;2023-11-25T02:20:07;6.00;;;1.00;;
83306;SDS011;73223;48.584;13.460;2023-11-25T02:22:35;0.65;;;0.50;;
83306;SDS011;73223;48.584;13.460;2023-11-25T02:25:01;1.70;;;0.63;;
83306;SDS011;73223;48.584;13.460;2023-11-25T02:27:28;2.40;;;0.85;;
83306;SDS011;73223;48.584;13.460;2023-11-25T02:29:53;2.00;;;0.80;;
83306;SDS011;73223;48.584;13.460;2023-11-25T02:32:19;1.70;;;0.70;;
83306;SDS011;73223;48.584;13.460;2023-11-25T02:34:44;1.60;;;0.70;;
83306;SDS011;73223;48.584;13.460;2023-11-25T02:37:10;1.35;;;0.52;;
83306;SDS011;73223;48.584;13.460;2023-11-25T02:39:38;1.50;;;0.70;;
83306;SDS011;73223;48.584;13.460;2023-11-25T02:42:03;2.42;;;0.88;;
83306;SDS011;73223;48.584;13.460;2023-11-25T02:44:31;1.20;;;0.60;;
83306;SDS011;73223;48.584;13.460;2023-11-25T02:46:57;1.58;;;0.70;;
83306;SDS011;73223;48.584;13.460;2023-11-25T02:49:22;1.73;;;0.63;;
83306;SDS011;73223;48.584;13.460;2023-11-25T02:51:48;1.40;;;0.80;;
83306;SDS011;73223;48.584;13.460;2023-11-25T02:54:13;3.10;;;0.70;;
83306;SDS011;73223;48.584;13.460;2023-11-25T02:56:39;1.75;;;0.75;;
83306;SDS011;73223;48.584;13.460;2023-11-25T02:59:05;1.25;;;0.52;;
83306;SDS011;73223;48.584;13.460;2023-11-25T03:01:30;0.43;;;0.43;;
83306;SDS011;73223;48.584;13.460;2023-11-25T03:03:57;0.77;;;0.52;;
83306;SDS011;73223;48.584;13.460;2023-11-25T03:06:26;2.30;;;0.73;;
83306;SDS011;73223;48.584;13.460;2023-11-25T03:08:52;2.03;;;0.50;;
83306;SDS011;73223;48.584;13.460;2023-11-25T03:11:20;1.08;;;0.45;;
83306;SDS011;73223;48.584;13.460;2023-11-25T03:13:46;0.70;;;0.50;;
83306;SDS011;73223;48.584;13.460;2023-11-25T03:16:11;1.05;;;0.57;;
83306;SDS011;73223;48.584;13.460;2023-11-25T03:18:37;1.90;;;0.77;;
83306;SDS011;73223;48.584;13.460;2023-11-25T03:21:02;0.52;;;0.40;;
83306;SDS011;73223;48.584;13.460;2023-11-25T03:23:28;1.98;;;0.68;;
83306;SDS011;73223;48.584;13.460;2023-11-25T03:25:54;0.75;;;0.60;;
83306;SDS011;73223;48.584;13.460;2023-11-25T03:28:20;1.38;;;0.80;;
83306;SDS011;73223;48.584;13.460;2023-11-25T03:30:47;1.35;;;0.60;;
83306;SDS011;73223;48.584;13.460;2023-11-25T03:33:12;1.55;;;0.75;;
83306;SDS011;73223;48.584;13.460;2023-11-25T03:35:38;1.25;;;0.70;;
83306;SDS011;73223;48.584;13.460;2023-11-25T03:38:04;1.50;;;0.50;;
83306;SDS011;73223;48.584;13.460;2023-11-25T03:40:29;1.47;;;0.57;;
83306;SDS011;73223;48.584;13.460;2023-11-25T03:42:54;1.05;;;0.60;;
83306;SDS011;73223;48.584;13.460;2023-11-25T03:45:20;1.10;;;0.60;;
83306;SDS011;73223;48.584;13.460;2023-11-25T03:47:46;1.88;;;0.70;;
83306;SDS011;73223;48.584;13.460;2023-11-25T03:50:12;1.65;;;0.68;;
83306;SDS011;73223;48.584;13.460;2023-11-25T03:52:38;1.67;;;0.70;;
83306;SDS011;73223;48.584;13.460;2023-11-25T03:55:05;1.90;;;0.70;;
83306;SDS011;73223;48.584;13.460;2023-11-25T03:57:32;1.05;;;0.50;;
83306;SDS011;73223;48.584;13.460;2023-11-25T03:59:57;0.73;;;0.40;;
83306;SDS011;73223;48.584;13.460;2023-11-25T04:02:22;1.07;;;0.60;;
83306;SDS011;73223;48.584;13.460;2023-11-25T04:04:47;0.90;;;0.60;;
83306;SDS011;73223;48.584;13.460;2023-11-25T04:07:13;1.17;;;0.50;;
83306;SDS011;73223;48.584;13.460;2023-11-25T04:09:38;1.07;;;0.60;;
83306;SDS011;73223;48.584;13.460;2023-11-25T04:12:03;1.97;;;0.80;;
83306;SDS011;73223;48.584;13.460;2023-11-25T04:14:29;1.30;;;0.60;;
83306;SDS011;73223;48.584;13.460;2023-11-25T04:16:54;1.30;;;0.57;;
83306;SDS011;73223;48.584;13.460;2023-11-25T04:19:21;2.40;;;0.60;;
83306;SDS011;73223;48.584;13.460;2023-11-25T04:21:46;2.38;;;0.60;;
83306;SDS011;73223;48.584;13.460;2023-11-25T04:24:15;0.85;;;0.52;;
83306;SDS011;73223;48.584;13.460;2023-11-25T04:26:40;2.65;;;0.63;;
83306;SDS011;73223;48.584;13.460;2023-11-25T04:29:06;0.63;;;0.40;;
83306;SDS011;73223;48.584;13.460;2023-11-25T04:31:31;1.80;;;0.60;;
83306;SDS011;73223;48.584;13.460;2023-11-25T04:33:57;1.40;;;0.60;;
83306;SDS011;73223;48.584;13.460;2023-11-25T04:36:22;1.85;;;0.73;;
83306;SDS011;73223;48.584;13.460;2023-11-25T04:38:49;1.58;;;0.60;;
83306;SDS011;73223;48.584;13.460;2023-11-25T04:41:14;1.58;;;0.60;;
83306;SDS011;73223;48.584;13.460;2023-11-25T04:43:39;1.67;;;1.00;;
83306;SDS011;73223;48.584;13.460;2023-11-25T04:46:05;0.40;;;0.40;;
83306;SDS011;73223;48.584;13.460;2023-11-25T04:48:34;1.50;;;0.60;;
83306;SDS011;73223;48.584;13.460;2023-11-25T04:50:59;1.83;;;0.60;;
83306;SDS011;73223;48.584;13.460;2023-11-25T04:53:24;2.90;;;0.60;;
83306;SDS011;73223;48.584;13.460;2023-11-25T04:55:51;1.55;;;0.60;;
83306;SDS011;73223;48.584;13.460;2023-11-25T04:58:17;2.17;;;0.73;;
83306;SDS011;73223;48.584;13.460;2023-11-25T05:00:43;0.47;;;0.40;;
83306;SDS011;73223;48.584;13.460;2023-11-25T05:03:08;1.40;;;0.70;;
83306;SDS011;73223;48.584;13.460;2023-11-25T05:05:34;2.28;;;0.80;;
83306;SDS011;73223;48.584;13.460;2023-11-25T05:07:59;1.92;;;0.75;;
83306;SDS011;73223;48.584;13.460;2023-11-25T05:10:25;2.63;;;0.70;;
83306;SDS011;73223;48.584;13.460;2023-11-25T05:12:53;3.60;;;1.30;;
83306;SDS011;73223;48.584;13.460;2023-11-25T05:15:19;2.65;;;0.93;;
83306;SDS011;73223;48.584;13.460;2023-11-25T05:17:47;4.25;;;0.90;;
83306;SDS011;73223;48.584;13.460;2023-11-25T05:20:12;3.95;;;0.93;;
83306;SDS011;73223;48.584;13.460;2023-11-25T05:22:41;2.20;;;0.70;;
83306;SDS011;73223;48.584;13.460;2023-11-25T05:25:06;2.83;;;0.65;;
83306;SDS011;73223;48.584;13.460;2023-11-25T05:27:32;3.50;;;0.90;;
83306;SDS011;73223;48.584;13.460;2023-11-25T05:29:57;1.70;;;0.70;;
83306;SDS011;73223;48.584;13.460;2023-11-25T05:32:22;1.88;;;0.60;;
83306;SDS011;73223;48.584;13.460;2023-11-25T05:34:48;4.45;;;0.57;;
83306;SDS011;73223;48.584;13.460;2023-11-25T05:37:13;4.10;;;0.63;;
83306;SDS011;73223;48.584;13.460;2023-11-25T05:39:38;1.55;;;0.70;;
83306;SDS011;73223;48.584;13.460;2023-11-25T05:42:05;1.63;;;0.55;;
83306;SDS011;73223;48.584;13.460;2023-11-25T05:44:32;1.05;;;0.52;;
83306;SDS011;73223;48.584;13.460;2023-11-25T05:46:57;2.88;;;0.77;;
83306;SDS011;73223;48.584;13.460;2023-11-25T05:49:23;2.15;;;0.82;;
83306;SDS011;73223;48.584;13.460;2023-11-25T05:51:48;1.67;;;0.68;;
83306;SDS011;73223;48.584;13.460;2023-11-25T05:54:16;1.40;;;0.70;;
83306;SDS011;73223;48.584;13.460;2023-11-25T05:56:42;3.45;;;1.00;;
83306;SDS011;73223;48.584;13.460;2023-11-25T05:59:08;3.13;;;0.63;;
83306;SDS011;73223;48.584;13.460;2023-11-25T06:01:36;2.90;;;0.68;;
83306;SDS011;73223;48.584;13.460;2023-11-25T06:04:02;1.33;;;0.70;;
83306;SDS011;73223;48.584;13.460;2023-11-25T06:06:27;2.55;;;0.70;;
83306;SDS011;73223;48.584;13.460;2023-11-25T06:08:53;2.00;;;0.80;;
83306;SDS011;73223;48.584;13.460;2023-11-25T06:11:25;0.75;;;0.50;;
83306;SDS011;73223;48.584;13.460;2023-11-25T06:13:51;4.18;;;1.30;;
83306;SDS011;73223;48.584;13.460;2023-11-25T06:16:18;4.22;;;0.68;;
83306;SDS011;73223;48.584;13.460;2023-11-25T06:18:44;1.55;;;0.70;;
83306;SDS011;73223;48.584;13.460;2023-11-25T06:21:09;4.07;;;0.98;;
83306;SDS011;73223;48.584;13.460;2023-11-25T06:23:34;2.20;;;0.60;;
83306;SDS011;73223;48.584;13.460;2023-11-25T06:25:59;3.53;;;0.70;;
83306;SDS011;73223;48.584;13.460;2023-11-25T06:28:25;2.90;;;0.88;;
83306;SDS011;73223;48.584;13.460;2023-11-25T06:30:50;2.58;;;0.85;;
83306;SDS011;73223;48.584;13.460;2023-11-25T06:33:22;1.50;;;0.68;;
83306;SDS011;73223;48.584;13.460;2023-11-25T06:35:49;2.55;;;0.90;;
83306;SDS011;73223;48.584;13.460;2023-11-25T06:38:15;2.15;;;0.80;;
83306;SDS011;73223;48.584;13.460;2023-11-25T06:40:40;3.88;;;1.20;;
83306;SDS011;73223;48.584;13.460;2023-11-25T06:43:05;4.50;;;1.00;;
83306;SDS011;73223;48.584;13.460;2023-11-25T06:45:31;2.47;;;0.85;;
83306;SDS011;73223;48.584;13.460;2023-11-25T06:47:58;6.65;;;1.50;;
83306;SDS011;73223;48.584;13.460;2023-11-25T06:50:23;3.38;;;1.15;;
83306;SDS011;73223;48.584;13.460;2023-11-25T06:52:48;3.75;;;1.05;;
83306;SDS011;73223;48.584;13.460;2023-11-25T06:55:14;4.78;;;0.93;;
83306;SDS011;73223;48.584;13.460;2023-11-25T06:57:39;4.68;;;1.00;;
83306;SDS011;73223;48.584;13.460;2023-11-25T07:00:06;3.83;;;1.08;;
83306;SDS011;73223;48.584;13.460;2023-11-25T07:02:34;7.75;;;0.98;;
83306;SDS011;73223;48.584;13.460;2023-11-25T07:04:59;4.60;;;0.80;;
83306;SDS011;73223;48.584;13.460;2023-11-25T07:07:24;5.17;;;1.20;;
83306;SDS011;73223;48.584;13.460;2023-11-25T07:09:50;2.28;;;0.90;;
83306;SDS011;73223;48.584;13.460;2023-11-25T07:12:15;3.77;;;1.10;;
83306;SDS011;73223;48.584;13.460;2023-11-25T07:14:40;3.28;;;0.90;;
83306;SDS011;73223;48.584;13.460;2023-11-25T07:17:07;4.43;;;1.13;;
83306;SDS011;73223;48.584;13.460;2023-11-25T07:19:35;1.92;;;0.70;;
83306;SDS011;73223;48.584;13.460;2023-11-25T07:22:00;5.33;;;0.93;;
83306;SDS011;73223;48.584;13.460;2023-11-25T07:24:26;3.35;;;1.20;;
83306;SDS011;73223;48.584;13.460;2023-11-25T07:26:53;4.53;;;1.05;;
83306;SDS011;73223;48.584;13.460;2023-11-25T07:29:20;2.28;;;0.70;;
83306;SDS011;73223;48.584;13.460;2023-11-25T07:31:45;3.72;;;1.38;;
83306;SDS011;73223;48.584;13.460;2023-11-25T07:34:12;3.67;;;1.00;;
83306;SDS011;73223;48.584;13.460;2023-11-25T07:36:37;2.08;;;0.95;;
83306;SDS011;73223;48.584;13.460;2023-11-25T07:39:06;2.78;;;0.65;;
83306;SDS011;73223;48.584;13.460;2023-11-25T07:41:31;2.08;;;0.80;;
83306;SDS011;73223;48.584;13.460;2023-11-25T07:43:56;3.20;;;0.93;;
83306;SDS011;73223;48.584;13.460;2023-11-25T07:46:22;2.87;;;1.00;;
83306;SDS011;73223;48.584;13.460;2023-11-25T07:48:47;2.90;;;0.95;;
83306;SDS011;73223;48.584;13.460;2023-11-25T07:51:12;4.55;;;1.33;;
83306;SDS011;73223;48.584;13.460;2023-11-25T07:53:38;5.78;;;0.90;;
83306;SDS011;73223;48.584;13.460;2023-11-25T07:56:03;3.40;;;1.10;;
83306;SDS011;73223;48.584;13.460;2023-11-25T07:58:30;5.38;;;1.17;;
83306;SDS011;73223;48.584;13.460;2023-11-25T08:00:55;2.38;;;0.82;;
83306;SDS011;73223;48.584;13.460;2023-11-25T08:03:20;3.65;;;1.02;;
83306;SDS011;73223;48.584;13.460;2023-11-25T08:05:46;3.88;;;1.15;;
83306;SDS011;73223;48.584;13.460;2023-11-25T08:08:11;2.97;;;1.00;;
83306;SDS011;73223;48.584;13.460;2023-11-25T08:10:37;2.65;;;0.80;;
83306;SDS011;73223;48.584;13.460;2023-11-25T08:13:02;4.20;;;1.10;;
83306;SDS011;73223;48.584;13.460;2023-11-25T08:15:28;4.05;;;0.93;;
83306;SDS011;73223;48.584;13.460;2023-11-25T08:17:54;1.25;;;0.60;;
83306;SDS011;73223;48.584;13.460;2023-11-25T08:20:21;4.03;;;1.13;;
83306;SDS011;73223;48.584;13.460;2023-11-25T08:22:46;1.60;;;0.83;;
83306;SDS011;73223;48.584;13.460;2023-11-25T08:25:11;3.63;;;1.20;;
83306;SDS011;73223;48.584;13.460;2023-11-25T08:27:37;4.07;;;0.73;;
83306;SDS011;73223;48.584;13.460;2023-11-25T08:30:04;2.40;;;0.77;;
83306;SDS011;73223;48.584;13.460;2023-11-25T08:32:39;2.00;;;0.98;;
83306;SDS011;73223;48.584;13.460;2023-11-25T08:35:08;3.40;;;1.10;;
83306;SDS011;73223;48.584;13.460;2023-11-25T08:37:35;3.60;;;1.10;;
83306;SDS011;73223;48.584;13.460;2023-11-25T08:40:01;3.30;;;0.90;;
83306;SDS011;73223;48.584;13.460;2023-11-25T08:42:28;4.60;;;1.13;;
83306;SDS011;73223;48.584;13.460;2023-11-25T08:44:55;1.92;;;0.80;;
83306;SDS011;73223;48.584;13.460;2023-11-25T08:47:21;4.00;;;1.23;;
83306;SDS011;73223;48.584;13.460;2023-11-25T08:49:46;2.45;;;0.90;;
83306;SDS011;73223;48.584;13.460;2023-11-25T08:52:13;2.42;;;0.85;;
83306;SDS011;73223;48.584;13.460;2023-11-25T08:54:39;2.33;;;0.77;;
83306;SDS011;73223;48.584;13.460;2023-11-25T08:57:04;2.57;;;0.80;;
83306;SDS011;73223;48.584;13.460;2023-11-25T08:59:32;4.65;;;0.90;;
83306;SDS011;73223;48.584;13.460;2023-11-25T09:01:58;4.85;;;1.45;;
83306;SDS011;73223;48.584;13.460;2023-11-25T09:04:23;3.55;;;1.20;;
83306;SDS011;73223;48.584;13.460;2023-11-25T09:06:51;4.50;;;1.65;;
83306;SDS011;73223;48.584;13.460;2023-11-25T09:09:18;3.30;;;1.33;;
83306;SDS011;73223;48.584;13.460;2023-11-25T09:11:45;2.95;;;1.10;;
83306;SDS011;73223;48.584;13.460;2023-11-25T09:14:11;3.45;;;1.15;;
83306;SDS011;73223;48.584;13.460;2023-11-25T09:16:37;4.25;;;0.90;;
83306;SDS011;73223;48.584;13.460;2023-11-25T09:19:02;3.95;;;1.15;;
83306;SDS011;73223;48.584;13.460;2023-11-25T09:21:28;4.15;;;0.82;;
83306;SDS011;73223;48.584;13.460;2023-11-25T09:23:54;2.70;;;0.90;;
83306;SDS011;73223;48.584;13.460;2023-11-25T09:26:20;3.85;;;1.30;;
83306;SDS011;73223;48.584;13.460;2023-11-25T09:28:48;4.18;;;1.13;;
83306;SDS011;73223;48.584;13.460;2023-11-25T09:31:13;2.03;;;0.80;;
83306;SDS011;73223;48.584;13.460;2023-11-25T09:33:39;3.38;;;1.30;;
83306;SDS011;73223;48.584;13.460;2023-11-25T09:36:05;4.13;;;1.27;;
83306;SDS011;73223;48.584;13.460;2023-11-25T09:38:31;2.92;;;0.98;;
83306;SDS011;73223;48.584;13.460;2023-11-25T09:40:57;4.50;;;1.00;;
83306;SDS011;73223;48.584;13.460;2023-11-25T09:43:23;2.28;;;0.82;;
83306;SDS011;73223;48.584;13.460;2023-11-25T09:45:48;4.05;;;1.20;;
83306;SDS011;73223;48.584;13.460;2023-11-25T09:48:15;3.92;;;1.23;;
83306;SDS011;73223;48.584;13.460;2023-11-25T09:50:40;3.42;;;1.13;;
83306;SDS011;73223;48.584;13.460;2023-11-25T09:53:14;2.15;;;0.70;;
83306;SDS011;73223;48.584;13.460;2023-11-25T09:55:55;5.43;;;1.45;;
83306;SDS011;73223;48.584;13.460;2023-11-25T09:58:26;2.65;;;0.80;;
83306;SDS011;73223;48.584;13.460;2023-11-25T10:00:53;5.38;;;1.02;;
83306;SDS011;73223;48.584;13.460;2023-11-25T10:03:19;3.97;;;0.82;;
83306;SDS011;73223;48.584;13.460;2023-11-25T10:05:46;3.25;;;0.90;;
83306;SDS011;73223;48.584;13.460;2023-11-25T10:08:12;5.50;;;1.20;;
83306;SDS011;73223;48.584;13.460;2023-11-25T10:10:37;3.28;;;1.50;;
83306;SDS011;73223;48.584;13.460;2023-11-25T10:13:02;5.22;;;1.35;;
83306;SDS011;73223;48.584;13.460;2023-11-25T10:15:29;5.18;;;1.10;;
83306;SDS011;73223;48.584;13.460;2023-11-25T10:17:54;2.30;;;0.98;;
83306;SDS011;73223;48.584;13.460;2023-11-25T10:20:20;3.20;;;1.13;;
83306;SDS011;73223;48.584;13.460;2023-11-25T10:22:48;2.10;;;1.20;;
83306;SDS011;73223;48.584;13.460;2023-11-25T10:27:43;2.05;;;1.10;;
83306;SDS011;73223;48.584;13.460;2023-11-25T10:30:13;3.20;;;0.90;;
83306;SDS011;73223;48.584;13.460;2023-11-25T10:32:39;3.72;;;1.13;;
83306;SDS011;73223;48.584;13.460;2023-11-25T10:35:05;5.13;;;1.30;;
83306;SDS011;73223;48.584;13.460;2023-11-25T10:37:33;2.63;;;1.00;;
83306;SDS011;73223;48.584;13.460;2023-11-25T10:39:59;2.25;;;0.85;;
83306;SDS011;73223;48.584;13.460;2023-11-25T10:42:24;3.67;;;1.10;;
83306;SDS011;73223;48.584;13.460;2023-11-25T10:44:51;2.67;;;0.95;;
83306;SDS011;73223;48.584;13.460;2023-11-25T10:47:38;2.50;;;0.80;;
83306;SDS011;73223;48.584;13.460;2023-11-25T10:50:04;2.58;;;1.17;;
83306;SDS011;73223;48.584;13.460;2023-11-25T10:52:32;3.80;;;1.20;;
83306;SDS011;73223;48.584;13.460;2023-11-25T10:55:01;2.10;;;0.80;;
83306;SDS011;73223;48.584;13.460;2023-11-25T10:57:27;2.92;;;1.00;;
83306;SDS011;73223;48.584;13.460;2023-11-25T10:59:55;2.78;;;0.70;;
83306;SDS011;73223;48.584;13.460;2023-11-25T11:02:27;4.60;;;1.20;;
83306;SDS011;73223;48.584;13.460;2023-11-25T11:04:58;3.10;;;1.02;;
83306;SDS011;73223;48.584;13.460;2023-11-25T11:07:26;3.22;;;0.90;;
83306;SDS011;73223;48.584;13.460;2023-11-25T11:09:55;2.75;;;0.90;;
83306;SDS011;73223;48.584;13.460;2023-11-25T11:12:27;5.25;;;1.10;;
83306;SDS011;73223;48.584;13.460;2023-11-25T11:15:06;4.03;;;1.25;;
83306;SDS011;73223;48.584;13.460;2023-11-25T11:17:42;3.88;;;0.82;;
83306;SDS011;73223;48.584;13.460;2023-11-25T11:20:16;5.28;;;1.13;;
83306;SDS011;73223;48.584;13.460;2023-11-25T11:22:44;3.92;;;1.50;;
83306;SDS011;73223;48.584;13.460;2023-11-25T11:25:23;4.80;;;0.95;;
83306;SDS011;73223;48.584;13.460;2023-11-25T11:28:06;3.95;;;1.20;;
83306;SDS011;73223;48.584;13.460;2023-11-25T11:31:08;4.85;;;1.33;;
83306;SDS011;73223;48.584;13.460;2023-11-25T11:35:51;2.40;;;0.70;;
83306;SDS011;73223;48.584;13.460;2023-11-25T11:38:23;6.18;;;0.98;;
83306;SDS011;73223;48.584;13.460;2023-11-25T11:40:52;2.42;;;0.70;;
83306;SDS011;73223;48.584;13.460;2023-11-25T11:43:19;3.20;;;1.05;;
83306;SDS011;73223;48.584;13.460;2023-11-25T11:45:44;3.17;;;1.00;;
83306;SDS011;73223;48.584;13.460;2023-11-25T11:48:12;4.25;;;1.50;;
83306;SDS011;73223;48.584;13.460;2023-11-25T11:50:39;3.83;;;1.10;;
83306;SDS011;73223;48.584;13.460;2023-11-25T11:55:48;2.78;;;0.98;;
83306;SDS011;73223;48.584;13.460;2023-11-25T11:58:22;4.70;;;1.23;;
83306;SDS011;73223;48.584;13.460;2023-11-25T12:00:53;6.18;;;1.27;;
83306;SDS011;73223;48.584;13.460;2023-11-25T12:03:29;6.47;;;1.20;;
83306;SDS011;73223;48.584;13.460;2023-11-25T12:05:55;5.70;;;1.10;;
83306;SDS011;73223;48.584;13.460;2023-11-25T12:08:21;7.03;;;1.83;;
83306;SDS011;73223;48.584;13.460;2023-11-25T12:10:47;2.58;;;0.90;;
83306;SDS011;73223;48.584;13.460;2023-11-25T12:13:29;7.05;;;1.30;;
83306;SDS011;73223;48.584;13.460;2023-11-25T12:15:56;3.45;;;1.70;;
83306;SDS011;73223;48.584;13.460;2023-11-25T12:18:25;6.53;;;1.55;;
83306;SDS011;73223;48.584;13.460;2023-11-25T12:20:55;4.90;;;1.50;;
83306;SDS011;73223;48.584;13.460;2023-11-25T12:23:21;7.95;;;2.17;;
83306;SDS011;73223;48.584;13.460;2023-11-25T12:25:50;3.95;;;1.10;;
83306;SDS011;73223;48.584;13.460;2023-11-25T12:28:15;5.68;;;1.35;;
83306;SDS011;73223;48.584;13.460;2023-11-25T12:30:41;5.75;;;1.50;;
83306;SDS011;73223;48.584;13.460;2023-11-25T12:33:07;4.40;;;1.15;;
83306;SDS011;73223;48.584;13.460;2023-11-25T12:35:38;5.32;;;1.60;;
83306;SDS011;73223;48.584;13.460;2023-11-25T12:38:05;4.60;;;1.67;;
83306;SDS011;73223;48.584;13.460;2023-11-25T12:40:30;16.92;;;1.50;;
83306;SDS011;73223;48.584;13.460;2023-11-25T12:42:56;3.60;;;1.27;;
83306;SDS011;73223;48.584;13.460;2023-11-25T12:45:39;6.85;;;1.70;;
83306;SDS011;73223;48.584;13.460;2023-11-25T12:48:06;6.47;;;1.42;;
83306;SDS011;73223;48.584;13.460;2023-11-25T12:50:33;7.63;;;1.63;;
83306;SDS011;73223;48.584;13.460;2023-11-25T12:53:09;3.80;;;1.10;;
83306;SDS011;73223;48.584;13.460;2023-11-25T12:58:09;5.72;;;2.35;;
83306;SDS011;73223;48.584;13.460;2023-11-25T13:00:45;7.88;;;1.92;;
83306;SDS011;73223;48.584;13.460;2023-11-25T13:03:22;6.78;;;1.35;;
83306;SDS011;73223;48.584;13.460;2023-11-25T13:06:01;5.22;;;1.35;;
83306;SDS011;73223;48.584;13.460;2023-11-25T13:08:30;4.03;;;1.20;;
83306;SDS011;73223;48.584;13.460;2023-11-25T13:11:01;7.38;;;1.73;;
83306;SDS011;73223;48.584;13.460;2023-11-25T13:13:29;8.75;;;1.80;;
83306;SDS011;73223;48.584;13.460;2023-11-25T13:15:56;4.05;;;1.30;;
83306;SDS011;73223;48.584;13.460;2023-11-25T13:18:22;5.93;;;1.52;;
83306;SDS011;73223;48.584;13.460;2023-11-25T13:20:51;4.07;;;1.40;;
83306;SDS011;73223;48.584;13.460;2023-11-25T13:23:18;5.05;;;1.17;;
83306;SDS011;73223;48.584;13.460;2023-11-25T13:25:45;3.70;;;1.15;;
83306;SDS011;73223;48.584;13.460;2023-11-25T13:28:13;5.93;;;1.50;;
83306;SDS011;73223;48.584;13.460;2023-11-25T13:30:39;4.20;;;1.40;;
83306;SDS011;73223;48.584;13.460;2023-11-25T13:33:06;5.30;;;1.40;;
83306;SDS011;73223;48.584;13.460;2023-11-25T13:35:31;4.53;;;1.30;;
83306;SDS011;73223;48.584;13.460;2023-11-25T13:37:58;3.42;;;1.05;;
83306;SDS011;73223;48.584;13.460;2023-11-25T13:40:24;9.40;;;1.63;;
83306;SDS011;73223;48.584;13.460;2023-11-25T13:43:01;4.70;;;1.35;;
83306;SDS011;73223;48.584;13.460;2023-11-25T13:45:28;6.68;;;1.50;;
83306;SDS011;73223;48.584;13.460;2023-11-25T13:47:54;5.18;;;1.25;;
83306;SDS011;73223;48.584;13.460;2023-11-25T13:50:21;4.68;;;1.35;;
83306;SDS011;73223;48.584;13.460;2023-11-25T13:52:46;4.13;;;1.10;;
83306;SDS011;73223;48.584;13.460;2023-11-25T13:55:11;5.13;;;1.80;;
83306;SDS011;73223;48.584;13.460;2023-11-25T13:57:41;4.88;;;1.33;;
83306;SDS011;73223;48.584;13.460;2023-11-25T14:00:06;4.20;;;1.20;;
83306;SDS011;73223;48.584;13.460;2023-11-25T14:02:33;6.78;;;1.85;;
83306;SDS011;73223;48.584;13.460;2023-11-25T14:04:58;6.07;;;1.55;;
83306;SDS011;73223;48.584;13.460;2023-11-25T14:07:24;4.78;;;1.63;;
83306;SDS011;73223;48.584;13.460;2023-11-25T14:09:49;6.30;;;1.50;;
83306;SDS011;73223;48.584;13.460;2023-11-25T14:12:15;4.32;;;1.33;;
83306;SDS011;73223;48.584;13.460;2023-11-25T14:14:41;5.88;;;1.67;;
83306;SDS011;73223;48.584;13.460;2023-11-25T14:17:06;4.45;;;1.55;;
83306;SDS011;73223;48.584;13.460;2023-11-25T14:19:36;5.90;;;1.90;;
83306;SDS011;73223;48.584;13.460;2023-11-25T14:22:01;5.68;;;1.60;;
83306;SDS011;73223;48.584;13.460;2023-11-25T14:24:26;6.93;;;2.30;;
83306;SDS011;73223;48.584;13.460;2023-11-25T14:26:51;11.70;;;1.67;;
83306;SDS011;73223;48.584;13.460;2023-11-25T14:29:17;5.88;;;1.80;;
83306;SDS011;73223;48.584;13.460;2023-11-25T14:31:42;8.82;;;1.60;;
83306;SDS011;73223;48.584;13.460;2023-11-25T14:34:08;5.60;;;1.75;;
83306;SDS011;73223;48.584;13.460;2023-11-25T14:39:01;5.13;;;1.77;;
83306;SDS011;73223;48.584;13.460;2023-11-25T14:41:26;6.27;;;1.93;;
83306;SDS011;73223;48.584;13.460;2023-11-25T14:43:51;7.27;;;2.03;;